createdAt,value
2023-04-16T00:01:05.673Z,28.25
2023-04-16T00:03:33.728Z,32.40
2023-04-16T00:06:01.252Z,31.90
2023-04-16T00:08:28.415Z,30.08
2023-04-16T00:10:55.512Z,31.00
2023-04-16T00:13:22.758Z,32.40
2023-04-16T00:15:49.867Z,31.13
2023-04-16T00:18:16.936Z,31.60
2023-04-16T00:20:44.078Z,34.47
2023-04-16T00:23:13.388Z,35.53
2023-04-16T00:25:40.700Z,33.88
2023-04-16T00:28:09.045Z,35.33
2023-04-16T00:30:37.801Z,32.83
2023-04-16T00:33:04.955Z,38.63
2023-04-16T00:35:32.092Z,36.35
2023-04-16T00:37:59.152Z,33.53
2023-04-16T00:40:29.015Z,37.20
2023-04-16T00:42:56.138Z,31.42
2023-04-16T00:45:23.251Z,33.83
2023-04-16T00:47:50.344Z,32.65
2023-04-16T00:50:17.611Z,31.83
2023-04-16T00:52:44.690Z,34.85
2023-04-16T00:55:13.368Z,32.80
2023-04-16T00:57:40.613Z,34.47
2023-04-16T01:00:08.657Z,30.42
2023-04-16T01:02:36.005Z,32.63
2023-04-16T01:05:03.529Z,33.33
2023-04-16T01:07:30.651Z,36.00
2023-04-16T01:09:57.906Z,33.95
2023-04-16T01:12:25.032Z,33.15
2023-04-16T01:14:52.117Z,33.28
2023-04-16T01:17:19.218Z,32.65
2023-04-16T01:19:46.308Z,31.07
2023-04-16T01:22:13.482Z,32.70
2023-04-16T01:24:40.721Z,30.38
2023-04-16T01:27:07.824Z,33.58
2023-04-16T01:29:35.032Z,28.85
2023-04-16T01:32:02.123Z,31.33
2023-04-16T01:34:29.229Z,32.55
2023-04-16T01:36:56.307Z,37.45
2023-04-16T01:39:23.392Z,30.70
2023-04-16T01:41:50.537Z,31.97
2023-04-16T01:44:17.631Z,31.40
2023-04-16T01:46:45.118Z,33.85
2023-04-16T01:49:12.332Z,33.65
2023-04-16T01:51:39.427Z,33.60
2023-04-16T01:54:06.522Z,31.27
2023-04-16T01:56:33.624Z,35.20
2023-04-16T01:59:00.719Z,33.70
2023-04-16T02:01:27.937Z,33.63
2023-04-16T02:03:55.263Z,33.30
2023-04-16T02:06:22.418Z,31.58
2023-04-16T02:08:49.595Z,36.00
2023-04-16T02:11:16.711Z,32.35
2023-04-16T02:13:43.790Z,35.90
2023-04-16T02:16:10.937Z,34.58
2023-04-16T02:18:38.051Z,31.63
2023-04-16T02:21:06.426Z,31.48
2023-04-16T02:23:33.494Z,32.95
2023-04-16T02:26:01.064Z,33.35
2023-04-16T02:28:28.137Z,33.53
2023-04-16T02:30:55.262Z,33.13
2023-04-16T02:33:22.568Z,31.52
2023-04-16T02:35:49.646Z,33.92
2023-04-16T02:38:16.715Z,32.83
2023-04-16T02:40:43.870Z,31.42
2023-04-16T02:43:10.969Z,36.53
2023-04-16T02:45:38.100Z,35.80
2023-04-16T02:48:07.162Z,34.88
2023-04-16T02:50:34.259Z,30.60
2023-04-16T02:53:01.331Z,32.55
2023-04-16T02:55:29.758Z,34.10
2023-04-16T02:57:56.891Z,32.10
2023-04-16T03:00:24.022Z,29.02
2023-04-16T03:02:51.295Z,30.23
2023-04-16T03:05:18.653Z,32.63
2023-04-16T03:07:46.100Z,32.47
2023-04-16T03:10:13.862Z,33.17
2023-04-16T03:12:40.961Z,31.77
2023-04-16T03:15:08.273Z,30.40
2023-04-16T03:17:35.614Z,32.22
2023-04-16T03:20:02.856Z,31.88
2023-04-16T03:22:29.975Z,33.88
2023-04-16T03:24:57.045Z,34.92
2023-04-16T03:27:24.142Z,35.80
2023-04-16T03:29:51.333Z,31.77
2023-04-16T03:32:18.538Z,31.95
2023-04-16T03:34:45.637Z,30.87
2023-04-16T03:37:13.087Z,36.40
2023-04-16T03:39:40.448Z,37.72
2023-04-16T03:42:07.556Z,33.58
2023-04-16T03:44:34.701Z,29.67
2023-04-16T03:47:01.795Z,33.25
2023-04-16T03:49:28.895Z,33.10
2023-04-16T03:51:55.991Z,35.60
2023-04-16T03:54:23.194Z,37.75
2023-04-16T03:56:50.409Z,34.80
2023-04-16T03:59:17.479Z,36.75
2023-04-16T04:01:44.673Z,32.22
2023-04-16T04:04:11.853Z,37.50
2023-04-16T04:06:38.987Z,40.78
2023-04-16T04:09:06.111Z,41.53
2023-04-16T04:11:33.295Z,35.42
2023-04-16T04:14:00.408Z,34.30
2023-04-16T04:16:27.679Z,39.10
2023-04-16T04:18:55.612Z,40.50
2023-04-16T04:21:22.707Z,35.22
2023-04-16T04:23:49.852Z,35.17
2023-04-16T04:26:17.123Z,37.07
2023-04-16T04:28:44.231Z,41.50
2023-04-16T04:31:11.635Z,38.40
2023-04-16T04:33:38.734Z,37.10
2023-04-16T04:36:05.934Z,41.45
2023-04-16T04:38:32.999Z,40.95
2023-04-16T04:41:00.155Z,38.33
2023-04-16T04:43:27.264Z,36.75
2023-04-16T04:45:54.384Z,34.70
2023-04-16T04:48:26.168Z,36.53
2023-04-16T04:50:53.861Z,33.78
2023-04-16T04:53:20.982Z,34.75
2023-04-16T04:55:50.923Z,38.78
2023-04-16T04:58:20.129Z,35.83
2023-04-16T05:00:47.581Z,36.92
2023-04-16T05:03:15.949Z,38.35
2023-04-16T05:05:43.261Z,36.85
2023-04-16T05:08:10.419Z,35.38
2023-04-16T05:10:37.511Z,34.92
2023-04-16T05:13:04.647Z,38.97
2023-04-16T05:15:31.733Z,35.70
2023-04-16T05:17:58.905Z,32.08
2023-04-16T05:20:26.037Z,37.58
2023-04-16T05:22:53.363Z,33.57
2023-04-16T05:25:20.457Z,32.20
2023-04-16T05:27:47.539Z,37.47
2023-04-16T05:30:14.632Z,33.30
2023-04-16T05:32:41.847Z,41.03
2023-04-16T05:35:09.589Z,35.37
2023-04-16T05:37:36.680Z,37.00
2023-04-16T05:40:03.996Z,31.48
2023-04-16T05:42:31.329Z,37.77
2023-04-16T05:44:58.409Z,32.27
2023-04-16T05:47:25.652Z,38.55
2023-04-16T05:49:52.778Z,34.75
2023-04-16T05:52:19.870Z,35.92
2023-04-16T05:54:46.953Z,35.30
2023-04-16T05:57:14.503Z,35.22
2023-04-16T05:59:41.653Z,38.27
2023-04-16T06:02:08.906Z,37.65
2023-04-16T06:04:36.125Z,35.00
2023-04-16T06:07:03.255Z,29.35
2023-04-16T06:09:30.740Z,35.40
2023-04-16T06:11:57.978Z,33.40
2023-04-16T06:14:25.040Z,34.30
2023-04-16T06:16:52.454Z,36.33
2023-04-16T06:19:19.533Z,30.63
2023-04-16T06:21:46.630Z,35.28
2023-04-16T06:24:13.780Z,34.63
2023-04-16T06:26:41.066Z,32.65
2023-04-16T06:29:08.347Z,33.38
2023-04-16T06:31:35.702Z,32.20
2023-04-16T06:34:02.794Z,34.05
2023-04-16T06:36:29.880Z,31.38
2023-04-16T06:38:56.966Z,29.48
2023-04-16T06:41:25.680Z,31.83
2023-04-16T06:43:52.927Z,35.35
2023-04-16T06:46:20.060Z,32.38
2023-04-16T06:48:47.231Z,30.50
2023-04-16T06:51:14.373Z,27.30
2023-04-16T06:53:42.386Z,29.48
2023-04-16T06:56:09.520Z,26.75
2023-04-16T06:58:36.653Z,31.03
2023-04-16T07:01:03.986Z,30.08
2023-04-16T07:03:31.220Z,31.80
2023-04-16T07:05:58.440Z,30.98
2023-04-16T07:08:25.601Z,28.15
2023-04-16T07:10:53.779Z,30.00
2023-04-16T07:13:21.563Z,31.47
2023-04-16T07:15:48.784Z,28.90
2023-04-16T07:18:16.451Z,30.20
2023-04-16T07:20:43.804Z,25.00
2023-04-16T07:23:11.024Z,25.58
2023-04-16T07:25:38.104Z,28.42
2023-04-16T07:28:05.298Z,26.83
2023-04-16T07:30:38.884Z,26.88
2023-04-16T07:33:06.092Z,27.40
2023-04-16T07:35:33.230Z,30.13
2023-04-16T07:38:00.321Z,27.27
2023-04-16T07:40:27.470Z,24.77
2023-04-16T07:42:55.758Z,24.52
2023-04-16T07:45:22.830Z,25.50
2023-04-16T07:47:49.985Z,26.27
2023-04-16T07:50:19.280Z,22.15
2023-04-16T07:52:47.023Z,24.15
2023-04-16T07:55:14.111Z,26.10
2023-04-16T07:57:41.743Z,19.98
2023-04-16T08:00:09.356Z,26.63
2023-04-16T08:02:36.615Z,22.77
2023-04-16T08:05:03.883Z,22.70
2023-04-16T08:07:32.742Z,21.92
2023-04-16T08:10:01.348Z,22.50
2023-04-16T08:12:28.481Z,22.75
2023-04-16T08:14:55.582Z,21.45
2023-04-16T08:17:22.770Z,22.70
2023-04-16T08:19:49.940Z,19.02
2023-04-16T08:22:17.362Z,19.57
2023-04-16T08:24:44.431Z,20.57
2023-04-16T08:27:19.105Z,19.20
2023-04-16T08:29:47.118Z,20.40
2023-04-16T08:32:14.288Z,20.75
2023-04-16T08:34:41.415Z,17.10
2023-04-16T08:37:08.531Z,17.88
2023-04-16T08:39:35.962Z,18.60
2023-04-16T08:42:03.357Z,17.70
2023-04-16T08:44:32.526Z,15.27
2023-04-16T08:46:59.702Z,15.45
2023-04-16T08:49:27.049Z,14.37
2023-04-16T08:51:55.320Z,14.20
2023-04-16T08:54:32.288Z,14.45
2023-04-16T08:56:59.806Z,14.77
2023-04-16T08:59:27.156Z,15.13
2023-04-16T09:01:56.966Z,15.77
2023-04-16T09:04:27.094Z,14.35
2023-04-16T09:06:54.598Z,13.77
2023-04-16T09:09:22.506Z,13.57
2023-04-16T09:11:53.558Z,14.55
2023-04-16T09:14:20.807Z,12.80
2023-04-16T09:16:47.996Z,15.07
2023-04-16T09:19:15.581Z,13.98
2023-04-16T09:21:43.016Z,13.75
2023-04-16T09:24:10.298Z,12.02
2023-04-16T09:26:37.452Z,10.90
2023-04-16T09:29:04.618Z,15.35
2023-04-16T09:31:31.925Z,10.55
2023-04-16T09:34:02.407Z,12.88
2023-04-16T09:36:29.575Z,11.15
2023-04-16T09:38:57.970Z,12.37
2023-04-16T09:41:25.534Z,10.27
2023-04-16T09:43:56.719Z,11.63
2023-04-16T09:46:34.741Z,10.75
2023-04-16T09:49:11.408Z,11.43
2023-04-16T09:51:38.944Z,11.85
2023-04-16T09:54:06.740Z,10.23
2023-04-16T09:56:33.889Z,9.93
2023-04-16T09:59:00.985Z,13.32
2023-04-16T10:01:29.099Z,12.75
2023-04-16T10:03:56.529Z,12.65
2023-04-16T10:06:25.352Z,11.23
2023-04-16T10:08:53.096Z,12.98
2023-04-16T10:11:20.872Z,15.15
2023-04-16T10:13:48.057Z,13.88
2023-04-16T10:16:15.267Z,12.48
2023-04-16T10:18:42.939Z,10.73
2023-04-16T10:21:12.896Z,11.82
2023-04-16T10:23:40.541Z,13.70
2023-04-16T10:26:07.663Z,12.33
2023-04-16T10:28:38.216Z,13.02
2023-04-16T10:31:06.359Z,10.80
2023-04-16T10:33:34.339Z,14.45
2023-04-16T10:36:08.517Z,11.80
2023-04-16T10:38:35.694Z,12.75
2023-04-16T10:41:03.509Z,13.73
2023-04-16T10:43:34.440Z,13.65
2023-04-16T10:46:20.611Z,12.52
2023-04-16T10:48:50.261Z,13.32
2023-04-16T10:51:24.181Z,13.77
2023-04-16T10:53:51.254Z,14.32
2023-04-16T10:56:28.064Z,11.60
2023-04-16T10:58:56.244Z,12.20
2023-04-16T11:01:32.606Z,12.15
2023-04-16T11:04:01.824Z,11.48
2023-04-16T11:06:29.541Z,11.48
2023-04-16T11:08:56.670Z,10.38
2023-04-16T11:11:23.837Z,9.52
2023-04-16T11:13:50.914Z,16.52
2023-04-16T11:16:18.099Z,10.27
2023-04-16T11:18:51.204Z,12.68
2023-04-16T11:21:18.950Z,10.32
2023-04-16T11:23:47.406Z,11.50
2023-04-16T11:26:24.600Z,11.03
2023-04-16T11:28:51.810Z,9.45
2023-04-16T11:31:18.916Z,11.68
2023-04-16T11:33:46.037Z,10.25
2023-04-16T11:36:13.136Z,11.02
2023-04-16T11:38:41.629Z,9.32
2023-04-16T11:41:08.718Z,9.20
2023-04-16T11:43:35.809Z,11.00
2023-04-16T11:46:16.696Z,7.00
2023-04-16T11:48:52.349Z,9.65
2023-04-16T11:51:20.516Z,9.75
2023-04-16T11:53:51.252Z,12.98
2023-04-16T11:56:25.648Z,10.00
2023-04-16T11:59:13.349Z,12.00
2023-04-16T12:01:41.421Z,10.50
2023-04-16T12:04:08.922Z,12.18
2023-04-16T12:06:36.338Z,10.45
2023-04-16T12:09:24.764Z,14.38
2023-04-16T12:11:51.945Z,12.63
2023-04-16T12:14:19.116Z,10.52
2023-04-16T12:16:46.711Z,12.73
2023-04-16T12:19:13.977Z,12.23
2023-04-16T12:21:45.001Z,10.13
2023-04-16T12:24:15.930Z,12.63
2023-04-16T12:26:44.022Z,12.27
2023-04-16T12:29:16.945Z,13.63
2023-04-16T12:31:44.416Z,11.88
2023-04-16T12:34:11.554Z,10.48
2023-04-16T12:36:38.631Z,13.17
2023-04-16T12:39:05.905Z,12.48
2023-04-16T12:41:32.983Z,9.77
2023-04-16T12:44:04.328Z,10.60
2023-04-16T12:46:31.469Z,11.43
2023-04-16T12:48:58.550Z,11.35
2023-04-16T12:51:25.616Z,12.47
2023-04-16T12:53:52.669Z,10.88
2023-04-16T12:56:19.716Z,9.90
2023-04-16T12:58:46.774Z,11.85
2023-04-16T13:01:13.884Z,12.23
2023-04-16T13:03:41.400Z,12.23
2023-04-16T13:06:08.552Z,12.07
2023-04-16T13:08:35.719Z,16.83
2023-04-16T13:11:02.771Z,9.90
2023-04-16T13:13:29.894Z,11.77
2023-04-16T13:15:57.004Z,12.13
2023-04-16T13:18:24.135Z,10.83
2023-04-16T13:20:51.223Z,10.73
2023-04-16T13:23:18.329Z,10.13
2023-04-16T13:25:45.376Z,12.43
2023-04-16T13:28:12.453Z,11.88
2023-04-16T13:30:39.588Z,10.95
2023-04-16T13:33:06.731Z,9.50
2023-04-16T13:35:33.896Z,11.80
2023-04-16T13:38:01.000Z,9.57
2023-04-16T13:40:28.262Z,11.52
2023-04-16T13:42:55.499Z,10.65
2023-04-16T13:45:22.604Z,11.47
2023-04-16T13:47:49.692Z,11.43
2023-04-16T13:50:16.800Z,9.63
2023-04-16T13:52:43.849Z,11.73
2023-04-16T13:55:13.677Z,11.10
2023-04-16T13:57:41.240Z,11.00
2023-04-16T14:00:11.202Z,11.90
2023-04-16T14:02:40.434Z,12.43
2023-04-16T14:05:07.717Z,13.90
2023-04-16T14:07:34.912Z,11.40
2023-04-16T14:10:01.958Z,10.98
2023-04-16T14:12:29.079Z,12.98
2023-04-16T14:14:56.129Z,13.23
2023-04-16T14:17:23.369Z,13.60
2023-04-16T14:19:50.898Z,15.30
2023-04-16T14:22:18.258Z,12.13
2023-04-16T14:24:45.311Z,11.43
2023-04-16T14:27:12.383Z,12.48
2023-04-16T14:29:39.477Z,12.07
2023-04-16T14:32:06.761Z,11.65
2023-04-16T14:34:33.863Z,17.30
2023-04-16T14:37:01.024Z,13.10
2023-04-16T14:39:28.083Z,15.32
2023-04-16T14:41:55.229Z,13.50
2023-04-16T14:44:22.704Z,11.50
2023-04-16T14:46:49.775Z,11.18
2023-04-16T14:49:17.113Z,16.95
2023-04-16T14:51:45.394Z,16.77
2023-04-16T14:54:12.499Z,13.55
2023-04-16T14:56:39.548Z,14.07
2023-04-16T14:59:06.768Z,14.53
2023-04-16T15:01:34.617Z,16.98
2023-04-16T15:04:02.886Z,14.73
2023-04-16T15:06:30.088Z,15.50
2023-04-16T15:08:57.181Z,14.63
2023-04-16T15:11:24.245Z,14.00
2023-04-16T15:13:51.294Z,15.68
2023-04-16T15:16:18.448Z,14.38
2023-04-16T15:18:45.630Z,13.65
2023-04-16T15:21:12.874Z,15.25
2023-04-16T15:23:39.994Z,15.63
2023-04-16T15:26:07.196Z,12.77
2023-04-16T15:28:34.506Z,13.27
2023-04-16T15:31:01.641Z,12.43
2023-04-16T15:33:28.913Z,13.13
2023-04-16T15:35:55.993Z,13.02
2023-04-16T15:38:23.056Z,11.97
2023-04-16T15:40:50.129Z,15.13
2023-04-16T15:43:17.226Z,12.80
2023-04-16T15:45:44.312Z,11.32
2023-04-16T15:48:11.489Z,10.63
2023-04-16T15:50:38.639Z,12.60
2023-04-16T15:53:05.824Z,12.25
2023-04-16T15:55:32.897Z,11.10
2023-04-16T15:58:00.086Z,12.65
2023-04-16T16:00:27.398Z,12.10
2023-04-16T16:02:54.565Z,9.98
2023-04-16T16:05:21.693Z,10.75
2023-04-16T16:07:48.768Z,9.57
2023-04-16T16:10:16.004Z,8.55
2023-04-16T16:12:43.102Z,19.52
2023-04-16T16:15:10.986Z,11.15
2023-04-16T16:17:38.265Z,11.85
2023-04-16T16:20:10.237Z,19.47
2023-04-16T16:22:38.189Z,12.75
2023-04-16T16:25:05.745Z,6.78
2023-04-16T16:27:32.820Z,9.07
2023-04-16T16:30:01.018Z,9.80
2023-04-16T16:32:28.176Z,10.13
2023-04-16T16:34:55.934Z,8.98
2023-04-16T16:37:23.362Z,14.80
2023-04-16T16:39:50.403Z,9.80
2023-04-16T16:42:18.695Z,9.48
2023-04-16T16:44:47.315Z,11.38
2023-04-16T16:47:14.404Z,10.32
2023-04-16T16:49:41.489Z,11.30
2023-04-16T16:52:08.566Z,9.95
2023-04-16T16:54:35.648Z,11.03
2023-04-16T16:57:03.229Z,10.95
2023-04-16T16:59:30.342Z,8.93
2023-04-16T17:01:57.427Z,11.20
2023-04-16T17:04:25.481Z,7.97
2023-04-16T17:06:52.833Z,10.23
2023-04-16T17:09:20.187Z,10.10
2023-04-16T17:11:47.409Z,10.88
2023-04-16T17:14:14.468Z,10.95
2023-04-16T17:16:41.596Z,14.57
2023-04-16T17:19:08.986Z,14.93
2023-04-16T17:21:36.548Z,11.95
2023-04-16T17:24:03.722Z,12.95
2023-04-16T17:26:31.746Z,12.00
2023-04-16T17:28:59.308Z,13.68
2023-04-16T17:31:27.542Z,10.90
2023-04-16T17:33:54.666Z,13.35
2023-04-16T17:36:22.974Z,18.33
2023-04-16T17:38:50.590Z,14.70
2023-04-16T17:41:17.675Z,12.20
2023-04-16T17:43:44.759Z,13.38
2023-04-16T17:46:11.910Z,15.23
2023-04-16T17:48:39.005Z,14.07
2023-04-16T17:51:09.669Z,15.30
2023-04-16T17:53:36.769Z,14.27
2023-04-16T17:56:03.849Z,15.65
2023-04-16T17:58:32.950Z,15.48
2023-04-16T18:01:00.179Z,17.05
2023-04-16T18:03:27.439Z,14.57
2023-04-16T18:05:54.728Z,13.95
2023-04-16T18:08:23.213Z,16.10
2023-04-16T18:10:50.370Z,16.48
2023-04-16T18:13:17.466Z,37.25
2023-04-16T18:15:44.632Z,18.20
2023-04-16T18:18:11.753Z,18.33
2023-04-16T18:20:38.813Z,17.42
2023-04-16T18:23:05.993Z,19.95
2023-04-16T18:25:35.235Z,19.10
2023-04-16T18:28:03.667Z,19.45
2023-04-16T18:30:30.847Z,19.08
2023-04-16T18:35:27.870Z,18.08
2023-04-16T18:37:54.949Z,19.87
2023-04-16T18:40:21.995Z,19.23
2023-04-16T18:42:49.063Z,19.85
2023-04-16T18:45:21.587Z,19.20
2023-04-16T18:47:50.151Z,21.08
2023-04-16T18:50:17.387Z,18.65
2023-04-16T18:52:44.469Z,18.63
2023-04-16T18:55:11.557Z,21.07
2023-04-16T18:57:38.618Z,22.25
2023-04-16T19:00:10.938Z,19.52
2023-04-16T19:02:38.288Z,18.25
2023-04-16T19:05:05.577Z,20.50
2023-04-16T19:07:33.927Z,20.17
2023-04-16T19:10:02.595Z,21.17
2023-04-16T19:12:29.713Z,19.92
2023-04-16T19:14:56.764Z,21.15
2023-04-16T19:17:23.819Z,18.20
2023-04-16T19:19:51.013Z,16.38
2023-04-16T19:22:18.096Z,15.93
2023-04-16T19:24:45.178Z,14.73
2023-04-16T19:27:12.258Z,15.50
2023-04-16T19:29:40.434Z,17.40
2023-04-16T19:32:07.525Z,14.95
2023-04-16T19:34:34.674Z,15.35
2023-04-16T19:37:01.746Z,16.50
2023-04-16T19:39:28.843Z,16.02
2023-04-16T19:41:56.188Z,15.73
2023-04-16T19:44:23.314Z,18.25
2023-04-16T19:46:50.587Z,13.80
2023-04-16T19:49:17.768Z,14.63
2023-04-16T19:51:46.090Z,15.98
2023-04-16T19:54:13.319Z,15.32
2023-04-16T19:56:40.370Z,12.57
2023-04-16T19:59:07.442Z,14.38
2023-04-16T20:01:34.607Z,16.20
2023-04-16T20:04:01.805Z,13.93
2023-04-16T20:06:28.950Z,13.27
2023-04-16T20:08:57.257Z,18.25
2023-04-16T20:11:24.358Z,18.35
2023-04-16T20:13:51.427Z,15.43
2023-04-16T20:16:23.729Z,15.63
2023-04-16T20:18:54.003Z,15.32
2023-04-16T20:21:21.571Z,16.05
2023-04-16T20:23:48.828Z,15.50
2023-04-16T20:26:18.128Z,17.90
2023-04-16T20:28:45.606Z,12.88
2023-04-16T20:31:12.910Z,16.00
2023-04-16T20:33:40.033Z,17.30
2023-04-16T20:36:07.311Z,20.55
2023-04-16T20:38:35.837Z,18.88
2023-04-16T20:41:14.482Z,18.15
2023-04-16T20:43:41.972Z,15.63
2023-04-16T20:46:09.409Z,18.13
2023-04-16T20:48:36.515Z,17.02
2023-04-16T20:51:03.931Z,15.80
2023-04-16T20:53:33.930Z,15.30
2023-04-16T20:56:01.114Z,17.98
2023-04-16T20:58:28.203Z,15.18
2023-04-16T21:00:55.565Z,17.08
2023-04-16T21:03:22.837Z,13.80
2023-04-16T21:05:50.366Z,17.83
2023-04-16T21:08:20.951Z,17.27
2023-04-16T21:10:48.115Z,20.40
2023-04-16T21:13:15.601Z,18.88
2023-04-16T21:15:43.181Z,20.77
2023-04-16T21:18:10.421Z,17.83
2023-04-16T21:20:37.509Z,17.90
2023-04-16T21:23:04.856Z,19.55
2023-04-16T21:25:32.248Z,17.15
2023-04-16T21:27:59.304Z,20.50
2023-04-16T21:30:26.389Z,19.23
2023-04-16T21:32:53.546Z,21.33
2023-04-16T21:35:20.709Z,18.92
2023-04-16T21:37:47.792Z,20.95
2023-04-16T21:40:14.964Z,18.83
2023-04-16T21:42:42.384Z,17.35
2023-04-16T21:45:10.340Z,18.00
2023-04-16T21:47:37.802Z,21.25
2023-04-16T21:50:05.579Z,22.10
2023-04-16T21:52:32.846Z,21.60
2023-04-16T21:55:01.118Z,18.77
2023-04-16T21:57:28.232Z,18.40
2023-04-16T21:59:55.316Z,20.38
2023-04-16T22:02:22.484Z,22.60
2023-04-16T22:04:50.304Z,19.58
2023-04-16T22:07:20.550Z,20.52
2023-04-16T22:09:47.645Z,22.77
2023-04-16T22:12:14.735Z,21.85
2023-04-16T22:14:49.223Z,24.58
2023-04-16T22:17:27.619Z,26.70
2023-04-16T22:19:54.759Z,24.45
2023-04-16T22:22:22.116Z,21.63
2023-04-16T22:24:49.372Z,23.45
2023-04-16T22:27:16.519Z,22.85
2023-04-16T22:29:43.647Z,26.83
2023-04-16T22:32:10.753Z,22.88
2023-04-16T22:34:37.908Z,21.83
2023-04-16T22:37:05.080Z,22.88
2023-04-16T22:39:32.303Z,22.37
2023-04-16T22:41:59.480Z,23.80
2023-04-16T22:44:26.702Z,24.42
2023-04-16T22:46:53.844Z,24.17
2023-04-16T22:49:20.916Z,21.00
2023-04-16T22:51:47.967Z,20.50
2023-04-16T22:54:15.079Z,24.08
2023-04-16T22:56:42.201Z,24.15
2023-04-16T22:59:09.621Z,23.23
2023-04-16T23:01:37.015Z,21.13
2023-04-16T23:04:04.168Z,21.05
2023-04-16T23:06:31.551Z,19.80
2023-04-16T23:08:58.655Z,21.42
2023-04-16T23:11:25.738Z,22.88
2023-04-16T23:13:52.831Z,21.42
2023-04-16T23:16:19.946Z,22.13
2023-04-16T23:18:47.078Z,21.73
2023-04-16T23:21:14.128Z,21.25
2023-04-16T23:23:41.185Z,21.85
2023-04-16T23:26:08.349Z,23.55
2023-04-16T23:28:35.569Z,19.85
2023-04-16T23:31:04.236Z,23.40
2023-04-16T23:33:33.093Z,24.50
2023-04-16T23:36:00.358Z,21.48
2023-04-16T23:38:27.438Z,22.45
2023-04-16T23:40:54.504Z,21.92
2023-04-16T23:43:21.582Z,24.05
2023-04-16T23:45:48.711Z,25.42
2023-04-16T23:48:15.766Z,24.17
2023-04-16T23:50:42.821Z,26.13
2023-04-16T23:53:09.870Z,24.98
2023-04-16T23:55:36.957Z,23.52
2023-04-16T23:58:04.019Z,25.75
